sensor_id;sensor_type;location;lat;lon;timestamp;P1;durP1;ratioP1;P2;durP2;ratioP2
28613;SDS011;15806;53.548;9.964;2023-02-15T00:01:21;272.20;;;23.57;;
28613;SDS011;15806;53.548;9.964;2023-02-15T00:03:01;199.47;;;22.70;;
28613;SDS011;15806;53.548;9.964;2023-02-15T00:04:42;319.90;;;24.93;;
28613;SDS011;15806;53.548;9.964;2023-02-15T00:06:23;201.93;;;20.97;;
28613;SDS011;15806;53.548;9.964;2023-02-15T00:08:03;349.20;;;25.53;;
28613;SDS011;15806;53.548;9.964;2023-02-15T00:09:47;193.40;;;23.70;;
28613;SDS011;15806;53.548;9.964;2023-02-15T00:11:27;194.75;;;21.70;;
28613;SDS011;15806;53.548;9.964;2023-02-15T00:13:08;161.27;;;21.17;;
28613;SDS011;15806;53.548;9.964;2023-02-15T00:14:48;176.60;;;21.43;;
28613;SDS011;15806;53.548;9.964;2023-02-15T00:16:31;216.27;;;22.63;;
28613;SDS011;15806;53.548;9.964;2023-02-15T00:18:12;298.02;;;23.77;;
28613;SDS011;15806;53.548;9.964;2023-02-15T00:19:52;299.47;;;25.07;;
28613;SDS011;15806;53.548;9.964;2023-02-15T00:21:34;284.63;;;23.80;;
28613;SDS011;15806;53.548;9.964;2023-02-15T00:23:15;140.27;;;21.23;;
28613;SDS011;15806;53.548;9.964;2023-02-15T00:24:56;307.80;;;25.63;;
28613;SDS011;15806;53.548;9.964;2023-02-15T00:26:37;144.63;;;21.70;;
28613;SDS011;15806;53.548;9.964;2023-02-15T00:28:19;167.15;;;22.38;;
28613;SDS011;15806;53.548;9.964;2023-02-15T00:29:59;135.67;;;23.07;;
28613;SDS011;15806;53.548;9.964;2023-02-15T00:31:40;176.73;;;22.27;;
28613;SDS011;15806;53.548;9.964;2023-02-15T00:33:21;155.88;;;22.13;;
28613;SDS011;15806;53.548;9.964;2023-02-15T00:35:04;136.20;;;21.50;;
28613;SDS011;15806;53.548;9.964;2023-02-15T00:36:45;164.53;;;22.87;;
28613;SDS011;15806;53.548;9.964;2023-02-15T00:38:26;199.50;;;22.98;;
28613;SDS011;15806;53.548;9.964;2023-02-15T00:40:07;108.03;;;15.82;;
28613;SDS011;15806;53.548;9.964;2023-02-15T00:41:48;168.50;;;23.00;;
28613;SDS011;15806;53.548;9.964;2023-02-15T00:43:30;197.85;;;21.88;;
28613;SDS011;15806;53.548;9.964;2023-02-15T00:45:11;208.07;;;22.73;;
28613;SDS011;15806;53.548;9.964;2023-02-15T00:46:52;185.43;;;22.33;;
28613;SDS011;15806;53.548;9.964;2023-02-15T00:48:32;137.07;;;20.87;;
28613;SDS011;15806;53.548;9.964;2023-02-15T00:50:13;288.63;;;25.60;;
28613;SDS011;15806;53.548;9.964;2023-02-15T00:51:53;194.67;;;23.13;;
28613;SDS011;15806;53.548;9.964;2023-02-15T00:53:34;293.40;;;24.80;;
28613;SDS011;15806;53.548;9.964;2023-02-15T00:55:15;225.07;;;23.00;;
28613;SDS011;15806;53.548;9.964;2023-02-15T00:56:55;102.80;;;19.67;;
28613;SDS011;15806;53.548;9.964;2023-02-15T00:58:36;276.07;;;25.30;;
28613;SDS011;15806;53.548;9.964;2023-02-15T01:00:16;235.77;;;24.17;;
28613;SDS011;15806;53.548;9.964;2023-02-15T01:01:57;345.83;;;27.60;;
28613;SDS011;15806;53.548;9.964;2023-02-15T01:03:37;199.43;;;23.43;;
28613;SDS011;15806;53.548;9.964;2023-02-15T01:05:18;371.98;;;28.27;;
28613;SDS011;15806;53.548;9.964;2023-02-15T01:06:59;419.70;;;27.17;;
28613;SDS011;15806;53.548;9.964;2023-02-15T01:08:40;298.73;;;24.00;;
28613;SDS011;15806;53.548;9.964;2023-02-15T01:10:20;194.82;;;23.90;;
28613;SDS011;15806;53.548;9.964;2023-02-15T01:12:01;295.20;;;25.42;;
28613;SDS011;15806;53.548;9.964;2023-02-15T01:13:42;151.17;;;22.20;;
28613;SDS011;15806;53.548;9.964;2023-02-15T01:15:22;310.03;;;24.00;;
28613;SDS011;15806;53.548;9.964;2023-02-15T01:17:03;162.00;;;23.10;;
28613;SDS011;15806;53.548;9.964;2023-02-15T01:18:44;241.60;;;22.27;;
28613;SDS011;15806;53.548;9.964;2023-02-15T01:20:26;285.38;;;27.40;;
28613;SDS011;15806;53.548;9.964;2023-02-15T01:22:08;301.25;;;24.90;;
28613;SDS011;15806;53.548;9.964;2023-02-15T01:23:48;338.73;;;26.13;;
28613;SDS011;15806;53.548;9.964;2023-02-15T01:25:29;265.20;;;24.53;;
28613;SDS011;15806;53.548;9.964;2023-02-15T01:27:09;123.63;;;20.97;;
28613;SDS011;15806;53.548;9.964;2023-02-15T01:28:50;231.33;;;22.83;;
28613;SDS011;15806;53.548;9.964;2023-02-15T01:30:30;489.93;;;30.73;;
28613;SDS011;15806;53.548;9.964;2023-02-15T01:32:12;402.13;;;26.45;;
28613;SDS011;15806;53.548;9.964;2023-02-15T01:33:52;232.80;;;21.60;;
28613;SDS011;15806;53.548;9.964;2023-02-15T01:35:33;372.37;;;26.20;;
28613;SDS011;15806;53.548;9.964;2023-02-15T01:37:13;216.93;;;23.23;;
28613;SDS011;15806;53.548;9.964;2023-02-15T01:38:54;342.93;;;26.53;;
28613;SDS011;15806;53.548;9.964;2023-02-15T01:40:34;295.93;;;25.17;;
28613;SDS011;15806;53.548;9.964;2023-02-15T01:42:20;125.63;;;21.90;;
28613;SDS011;15806;53.548;9.964;2023-02-15T01:44:02;338.35;;;24.77;;
28613;SDS011;15806;53.548;9.964;2023-02-15T01:45:43;379.48;;;27.00;;
28613;SDS011;15806;53.548;9.964;2023-02-15T01:47:35;235.50;;;23.10;;
28613;SDS011;15806;53.548;9.964;2023-02-15T01:49:27;263.27;;;23.13;;
28613;SDS011;15806;53.548;9.964;2023-02-15T01:51:08;234.20;;;24.73;;
28613;SDS011;15806;53.548;9.964;2023-02-15T01:52:51;303.23;;;23.37;;
28613;SDS011;15806;53.548;9.964;2023-02-15T01:54:32;332.85;;;25.13;;
28613;SDS011;15806;53.548;9.964;2023-02-15T01:56:23;174.25;;;21.90;;
28613;SDS011;15806;53.548;9.964;2023-02-15T01:58:07;355.80;;;27.52;;
28613;SDS011;15806;53.548;9.964;2023-02-15T01:59:49;300.33;;;24.73;;
28613;SDS011;15806;53.548;9.964;2023-02-15T02:01:33;375.65;;;25.55;;
28613;SDS011;15806;53.548;9.964;2023-02-15T02:03:14;302.50;;;25.00;;
28613;SDS011;15806;53.548;9.964;2023-02-15T02:04:57;280.58;;;23.52;;
28613;SDS011;15806;53.548;9.964;2023-02-15T02:06:39;379.25;;;27.17;;
28613;SDS011;15806;53.548;9.964;2023-02-15T02:08:20;341.42;;;26.50;;
28613;SDS011;15806;53.548;9.964;2023-02-15T02:10:02;243.80;;;23.20;;
28613;SDS011;15806;53.548;9.964;2023-02-15T02:11:44;199.75;;;22.98;;
28613;SDS011;15806;53.548;9.964;2023-02-15T02:13:27;229.07;;;23.83;;
28613;SDS011;15806;53.548;9.964;2023-02-15T02:15:08;430.73;;;27.27;;
28613;SDS011;15806;53.548;9.964;2023-02-15T02:27:09;263.95;;;22.65;;
28613;SDS011;15806;53.548;9.964;2023-02-15T02:29:13;250.45;;;22.67;;
28613;SDS011;15806;53.548;9.964;2023-02-15T02:31:17;225.05;;;24.08;;
28613;SDS011;15806;53.548;9.964;2023-02-15T02:35:28;284.98;;;23.15;;
28613;SDS011;15806;53.548;9.964;2023-02-15T02:37:27;235.40;;;22.17;;
28613;SDS011;15806;53.548;9.964;2023-02-15T02:41:22;209.07;;;24.13;;
28613;SDS011;15806;53.548;9.964;2023-02-15T02:45:09;412.17;;;26.70;;
28613;SDS011;15806;53.548;9.964;2023-02-15T02:48:36;386.00;;;29.37;;
28613;SDS011;15806;53.548;9.964;2023-02-15T02:50:21;154.70;;;21.30;;
28613;SDS011;15806;53.548;9.964;2023-02-15T02:52:06;224.00;;;22.17;;
28613;SDS011;15806;53.548;9.964;2023-02-15T02:57:33;190.25;;;21.73;;
28613;SDS011;15806;53.548;9.964;2023-02-15T02:59:20;257.40;;;23.85;;
28613;SDS011;15806;53.548;9.964;2023-02-15T03:01:23;189.00;;;22.75;;
28613;SDS011;15806;53.548;9.964;2023-02-15T03:03:20;193.90;;;23.88;;
28613;SDS011;15806;53.548;9.964;2023-02-15T03:05:03;216.93;;;19.65;;
28613;SDS011;15806;53.548;9.964;2023-02-15T03:06:50;284.00;;;23.27;;
28613;SDS011;15806;53.548;9.964;2023-02-15T03:08:39;357.70;;;26.90;;
28613;SDS011;15806;53.548;9.964;2023-02-15T03:10:22;214.80;;;22.50;;
28613;SDS011;15806;53.548;9.964;2023-02-15T03:13:44;210.75;;;18.98;;
28613;SDS011;15806;53.548;9.964;2023-02-15T03:15:33;288.27;;;25.98;;
28613;SDS011;15806;53.548;9.964;2023-02-15T03:17:18;174.82;;;22.65;;
28613;SDS011;15806;53.548;9.964;2023-02-15T03:19:14;145.30;;;20.40;;
28613;SDS011;15806;53.548;9.964;2023-02-15T03:21:08;262.30;;;22.40;;
28613;SDS011;15806;53.548;9.964;2023-02-15T03:22:52;274.70;;;22.20;;
28613;SDS011;15806;53.548;9.964;2023-02-15T03:24:43;457.85;;;28.30;;
28613;SDS011;15806;53.548;9.964;2023-02-15T03:26:28;503.52;;;29.55;;
28613;SDS011;15806;53.548;9.964;2023-02-15T03:28:11;122.93;;;19.20;;
28613;SDS011;15806;53.548;9.964;2023-02-15T03:29:56;115.90;;;19.45;;
28613;SDS011;15806;53.548;9.964;2023-02-15T03:31:43;242.18;;;22.38;;
28613;SDS011;15806;53.548;9.964;2023-02-15T03:33:29;160.20;;;21.65;;
28613;SDS011;15806;53.548;9.964;2023-02-15T03:36:59;157.55;;;19.42;;
28613;SDS011;15806;53.548;9.964;2023-02-15T03:38:50;320.30;;;23.80;;
28613;SDS011;15806;53.548;9.964;2023-02-15T03:40:53;253.50;;;23.20;;
28613;SDS011;15806;53.548;9.964;2023-02-15T03:42:38;349.75;;;24.80;;
28613;SDS011;15806;53.548;9.964;2023-02-15T03:46:12;296.38;;;24.73;;
28613;SDS011;15806;53.548;9.964;2023-02-15T03:48:00;256.08;;;22.15;;
28613;SDS011;15806;53.548;9.964;2023-02-15T03:49:42;308.45;;;21.58;;
28613;SDS011;15806;53.548;9.964;2023-02-15T03:51:36;406.38;;;25.98;;
28613;SDS011;15806;53.548;9.964;2023-02-15T03:53:20;202.65;;;21.65;;
28613;SDS011;15806;53.548;9.964;2023-02-15T03:55:03;142.82;;;20.05;;
28613;SDS011;15806;53.548;9.964;2023-02-15T03:56:44;153.80;;;20.70;;
28613;SDS011;15806;53.548;9.964;2023-02-15T03:58:24;119.47;;;20.97;;
28613;SDS011;15806;53.548;9.964;2023-02-15T04:00:18;165.73;;;22.73;;
28613;SDS011;15806;53.548;9.964;2023-02-15T04:03:57;150.25;;;22.73;;
28613;SDS011;15806;53.548;9.964;2023-02-15T04:05:42;243.20;;;22.20;;
28613;SDS011;15806;53.548;9.964;2023-02-15T04:07:24;192.57;;;23.15;;
28613;SDS011;15806;53.548;9.964;2023-02-15T04:09:04;267.97;;;22.00;;
28613;SDS011;15806;53.548;9.964;2023-02-15T04:10:45;144.03;;;19.17;;
28613;SDS011;15806;53.548;9.964;2023-02-15T04:12:25;406.77;;;25.87;;
28613;SDS011;15806;53.548;9.964;2023-02-15T04:14:05;181.53;;;21.80;;
28613;SDS011;15806;53.548;9.964;2023-02-15T04:15:46;142.77;;;20.57;;
28613;SDS011;15806;53.548;9.964;2023-02-15T04:17:27;114.83;;;19.73;;
28613;SDS011;15806;53.548;9.964;2023-02-15T04:19:08;158.68;;;21.02;;
28613;SDS011;15806;53.548;9.964;2023-02-15T04:20:48;131.37;;;17.90;;
28613;SDS011;15806;53.548;9.964;2023-02-15T04:22:29;358.07;;;24.97;;
28613;SDS011;15806;53.548;9.964;2023-02-15T04:24:09;252.67;;;24.67;;
28613;SDS011;15806;53.548;9.964;2023-02-15T04:25:50;244.52;;;22.15;;
28613;SDS011;15806;53.548;9.964;2023-02-15T04:27:31;229.53;;;20.50;;
28613;SDS011;15806;53.548;9.964;2023-02-15T04:29:11;154.97;;;20.20;;
28613;SDS011;15806;53.548;9.964;2023-02-15T04:30:52;129.20;;;20.40;;
28613;SDS011;15806;53.548;9.964;2023-02-15T04:32:33;300.00;;;23.43;;
28613;SDS011;15806;53.548;9.964;2023-02-15T04:34:14;151.70;;;19.10;;
28613;SDS011;15806;53.548;9.964;2023-02-15T04:35:54;152.47;;;19.40;;
28613;SDS011;15806;53.548;9.964;2023-02-15T04:37:35;95.70;;;17.37;;
28613;SDS011;15806;53.548;9.964;2023-02-15T04:39:16;125.27;;;18.87;;
28613;SDS011;15806;53.548;9.964;2023-02-15T04:40:57;247.48;;;20.75;;
28613;SDS011;15806;53.548;9.964;2023-02-15T04:42:38;152.17;;;18.57;;
28613;SDS011;15806;53.548;9.964;2023-02-15T04:44:19;133.85;;;19.05;;
28613;SDS011;15806;53.548;9.964;2023-02-15T04:45:59;134.97;;;18.13;;
28613;SDS011;15806;53.548;9.964;2023-02-15T04:47:40;120.17;;;17.57;;
28613;SDS011;15806;53.548;9.964;2023-02-15T04:49:21;182.13;;;19.25;;
28613;SDS011;15806;53.548;9.964;2023-02-15T04:51:05;111.80;;;19.47;;
28613;SDS011;15806;53.548;9.964;2023-02-15T04:52:46;110.22;;;18.02;;
28613;SDS011;15806;53.548;9.964;2023-02-15T04:54:27;120.60;;;18.43;;
28613;SDS011;15806;53.548;9.964;2023-02-15T04:56:07;91.60;;;17.00;;
28613;SDS011;15806;53.548;9.964;2023-02-15T04:57:48;116.83;;;19.77;;
28613;SDS011;15806;53.548;9.964;2023-02-15T04:59:28;237.57;;;22.27;;
28613;SDS011;15806;53.548;9.964;2023-02-15T05:01:09;322.57;;;22.37;;
28613;SDS011;15806;53.548;9.964;2023-02-15T05:02:49;167.80;;;20.13;;
28613;SDS011;15806;53.548;9.964;2023-02-15T05:04:30;183.73;;;18.57;;
28613;SDS011;15806;53.548;9.964;2023-02-15T05:06:10;100.53;;;18.37;;
28613;SDS011;15806;53.548;9.964;2023-02-15T05:07:51;114.10;;;18.90;;
28613;SDS011;15806;53.548;9.964;2023-02-15T05:09:31;191.07;;;19.97;;
28613;SDS011;15806;53.548;9.964;2023-02-15T05:11:12;209.23;;;20.63;;
28613;SDS011;15806;53.548;9.964;2023-02-15T05:12:53;93.47;;;15.90;;
28613;SDS011;15806;53.548;9.964;2023-02-15T05:14:33;108.10;;;17.57;;
28613;SDS011;15806;53.548;9.964;2023-02-15T05:16:14;118.33;;;17.47;;
28613;SDS011;15806;53.548;9.964;2023-02-15T05:17:54;84.57;;;16.93;;
28613;SDS011;15806;53.548;9.964;2023-02-15T05:19:35;119.27;;;17.53;;
28613;SDS011;15806;53.548;9.964;2023-02-15T05:21:15;125.17;;;19.50;;
28613;SDS011;15806;53.548;9.964;2023-02-15T05:22:56;103.70;;;17.43;;
28613;SDS011;15806;53.548;9.964;2023-02-15T05:24:36;123.10;;;17.70;;
28613;SDS011;15806;53.548;9.964;2023-02-15T05:26:21;197.03;;;19.67;;
28613;SDS011;15806;53.548;9.964;2023-02-15T05:28:02;103.47;;;16.70;;
28613;SDS011;15806;53.548;9.964;2023-02-15T05:29:43;93.27;;;16.93;;
28613;SDS011;15806;53.548;9.964;2023-02-15T05:31:24;118.10;;;17.10;;
28613;SDS011;15806;53.548;9.964;2023-02-15T05:33:04;96.63;;;17.50;;
28613;SDS011;15806;53.548;9.964;2023-02-15T05:34:46;139.18;;;18.88;;
28613;SDS011;15806;53.548;9.964;2023-02-15T05:36:27;188.80;;;20.63;;
28613;SDS011;15806;53.548;9.964;2023-02-15T05:38:07;186.57;;;19.73;;
28613;SDS011;15806;53.548;9.964;2023-02-15T05:39:48;85.97;;;17.33;;
28613;SDS011;15806;53.548;9.964;2023-02-15T05:41:28;136.07;;;17.23;;
28613;SDS011;15806;53.548;9.964;2023-02-15T05:43:09;362.13;;;25.03;;
28613;SDS011;15806;53.548;9.964;2023-02-15T05:44:49;108.63;;;17.83;;
28613;SDS011;15806;53.548;9.964;2023-02-15T05:46:30;164.00;;;20.50;;
28613;SDS011;15806;53.548;9.964;2023-02-15T05:48:10;218.57;;;22.90;;
28613;SDS011;15806;53.548;9.964;2023-02-15T05:49:51;94.13;;;17.87;;
28613;SDS011;15806;53.548;9.964;2023-02-15T05:51:31;114.67;;;18.00;;
28613;SDS011;15806;53.548;9.964;2023-02-15T05:53:12;81.83;;;16.43;;
28613;SDS011;15806;53.548;9.964;2023-02-15T05:54:52;101.97;;;17.50;;
28613;SDS011;15806;53.548;9.964;2023-02-15T05:56:33;74.63;;;16.40;;
28613;SDS011;15806;53.548;9.964;2023-02-15T05:58:13;99.63;;;16.30;;
28613;SDS011;15806;53.548;9.964;2023-02-15T05:59:54;143.00;;;17.77;;
28613;SDS011;15806;53.548;9.964;2023-02-15T06:01:34;160.67;;;19.17;;
28613;SDS011;15806;53.548;9.964;2023-02-15T06:03:15;88.53;;;17.73;;
28613;SDS011;15806;53.548;9.964;2023-02-15T06:04:55;83.40;;;18.27;;
28613;SDS011;15806;53.548;9.964;2023-02-15T06:06:36;72.00;;;17.03;;
28613;SDS011;15806;53.548;9.964;2023-02-15T06:08:17;106.10;;;18.20;;
28613;SDS011;15806;53.548;9.964;2023-02-15T06:09:57;112.93;;;18.60;;
28613;SDS011;15806;53.548;9.964;2023-02-15T06:11:38;141.03;;;19.90;;
28613;SDS011;15806;53.548;9.964;2023-02-15T06:13:19;96.23;;;16.93;;
28613;SDS011;15806;53.548;9.964;2023-02-15T06:14:59;71.17;;;16.87;;
28613;SDS011;15806;53.548;9.964;2023-02-15T06:16:40;81.23;;;18.23;;
28613;SDS011;15806;53.548;9.964;2023-02-15T06:18:20;91.33;;;17.00;;
28613;SDS011;15806;53.548;9.964;2023-02-15T06:20:01;137.07;;;16.77;;
28613;SDS011;15806;53.548;9.964;2023-02-15T06:21:41;153.50;;;20.13;;
28613;SDS011;15806;53.548;9.964;2023-02-15T06:23:22;91.37;;;17.13;;
28613;SDS011;15806;53.548;9.964;2023-02-15T06:25:02;84.47;;;17.57;;
28613;SDS011;15806;53.548;9.964;2023-02-15T06:26:43;188.70;;;19.17;;
28613;SDS011;15806;53.548;9.964;2023-02-15T06:28:24;89.03;;;18.73;;
28613;SDS011;15806;53.548;9.964;2023-02-15T06:30:04;81.73;;;16.70;;
28613;SDS011;15806;53.548;9.964;2023-02-15T06:33:26;138.45;;;19.27;;
28613;SDS011;15806;53.548;9.964;2023-02-15T06:35:07;116.23;;;16.43;;
28613;SDS011;15806;53.548;9.964;2023-02-15T06:36:47;100.90;;;16.10;;
28613;SDS011;15806;53.548;9.964;2023-02-15T06:38:28;195.57;;;20.97;;
28613;SDS011;15806;53.548;9.964;2023-02-15T06:40:09;91.00;;;15.98;;
28613;SDS011;15806;53.548;9.964;2023-02-15T06:41:49;107.53;;;18.43;;
28613;SDS011;15806;53.548;9.964;2023-02-15T06:43:30;96.73;;;16.37;;
28613;SDS011;15806;53.548;9.964;2023-02-15T06:45:11;79.43;;;16.30;;
28613;SDS011;15806;53.548;9.964;2023-02-15T06:46:54;78.27;;;16.03;;
28613;SDS011;15806;53.548;9.964;2023-02-15T06:48:35;134.05;;;16.75;;
28613;SDS011;15806;53.548;9.964;2023-02-15T06:50:15;147.90;;;19.37;;
28613;SDS011;15806;53.548;9.964;2023-02-15T06:51:56;89.47;;;16.77;;
28613;SDS011;15806;53.548;9.964;2023-02-15T06:53:36;156.07;;;19.60;;
28613;SDS011;15806;53.548;9.964;2023-02-15T06:55:17;116.03;;;16.47;;
28613;SDS011;15806;53.548;9.964;2023-02-15T06:56:57;85.83;;;16.70;;
28613;SDS011;15806;53.548;9.964;2023-02-15T06:58:38;134.03;;;17.40;;
28613;SDS011;15806;53.548;9.964;2023-02-15T07:00:20;150.02;;;18.98;;
28613;SDS011;15806;53.548;9.964;2023-02-15T07:02:01;105.70;;;16.67;;
28613;SDS011;15806;53.548;9.964;2023-02-15T07:03:41;199.33;;;19.80;;
28613;SDS011;15806;53.548;9.964;2023-02-15T07:05:22;82.80;;;18.43;;
28613;SDS011;15806;53.548;9.964;2023-02-15T07:07:03;104.45;;;16.63;;
28613;SDS011;15806;53.548;9.964;2023-02-15T07:08:44;70.55;;;15.70;;
28613;SDS011;15806;53.548;9.964;2023-02-15T07:10:25;108.30;;;17.00;;
28613;SDS011;15806;53.548;9.964;2023-02-15T07:13:47;111.00;;;19.48;;
28613;SDS011;15806;53.548;9.964;2023-02-15T07:15:27;97.70;;;19.83;;
28613;SDS011;15806;53.548;9.964;2023-02-15T07:17:08;125.13;;;19.47;;
28613;SDS011;15806;53.548;9.964;2023-02-15T07:18:48;209.40;;;19.07;;
28613;SDS011;15806;53.548;9.964;2023-02-15T07:20:29;188.67;;;19.77;;
28613;SDS011;15806;53.548;9.964;2023-02-15T07:22:09;151.60;;;18.87;;
28613;SDS011;15806;53.548;9.964;2023-02-15T07:23:50;132.70;;;17.90;;
28613;SDS011;15806;53.548;9.964;2023-02-15T07:25:31;86.43;;;15.13;;
28613;SDS011;15806;53.548;9.964;2023-02-15T07:27:11;79.40;;;14.40;;
28613;SDS011;15806;53.548;9.964;2023-02-15T07:28:52;172.50;;;21.93;;
28613;SDS011;15806;53.548;9.964;2023-02-15T07:30:32;241.40;;;20.23;;
28613;SDS011;15806;53.548;9.964;2023-02-15T07:32:13;150.73;;;18.60;;
28613;SDS011;15806;53.548;9.964;2023-02-15T07:33:53;127.47;;;17.97;;
28613;SDS011;15806;53.548;9.964;2023-02-15T07:35:34;82.77;;;17.40;;
28613;SDS011;15806;53.548;9.964;2023-02-15T07:37:14;143.03;;;17.93;;
28613;SDS011;15806;53.548;9.964;2023-02-15T07:38:55;103.53;;;17.10;;
28613;SDS011;15806;53.548;9.964;2023-02-15T07:40:35;193.90;;;20.63;;
28613;SDS011;15806;53.548;9.964;2023-02-15T07:42:16;95.77;;;18.77;;
28613;SDS011;15806;53.548;9.964;2023-02-15T07:43:57;108.65;;;18.13;;
28613;SDS011;15806;53.548;9.964;2023-02-15T07:45:37;107.63;;;17.70;;
28613;SDS011;15806;53.548;9.964;2023-02-15T07:47:18;100.00;;;16.73;;
28613;SDS011;15806;53.548;9.964;2023-02-15T07:48:59;205.30;;;18.50;;
28613;SDS011;15806;53.548;9.964;2023-02-15T07:50:39;178.43;;;18.70;;
28613;SDS011;15806;53.548;9.964;2023-02-15T07:52:20;177.97;;;18.97;;
28613;SDS011;15806;53.548;9.964;2023-02-15T07:54:00;112.27;;;16.83;;
28613;SDS011;15806;53.548;9.964;2023-02-15T07:55:41;100.53;;;16.77;;
28613;SDS011;15806;53.548;9.964;2023-02-15T07:57:21;81.17;;;16.30;;
28613;SDS011;15806;53.548;9.964;2023-02-15T07:59:02;104.47;;;17.30;;
28613;SDS011;15806;53.548;9.964;2023-02-15T08:00:42;120.93;;;16.10;;
28613;SDS011;15806;53.548;9.964;2023-02-15T08:02:23;80.90;;;17.10;;
28613;SDS011;15806;53.548;9.964;2023-02-15T08:04:04;81.90;;;17.23;;
28613;SDS011;15806;53.548;9.964;2023-02-15T08:05:46;85.78;;;17.75;;
28613;SDS011;15806;53.548;9.964;2023-02-15T08:07:27;101.47;;;15.77;;
28613;SDS011;15806;53.548;9.964;2023-02-15T08:09:07;113.73;;;17.03;;
28613;SDS011;15806;53.548;9.964;2023-02-15T08:10:48;77.60;;;16.48;;
28613;SDS011;15806;53.548;9.964;2023-02-15T08:12:29;156.60;;;17.70;;
28613;SDS011;15806;53.548;9.964;2023-02-15T08:15:54;143.38;;;18.52;;
28613;SDS011;15806;53.548;9.964;2023-02-15T08:17:36;86.27;;;16.10;;
28613;SDS011;15806;53.548;9.964;2023-02-15T08:19:20;118.75;;;17.77;;
28613;SDS011;15806;53.548;9.964;2023-02-15T08:21:06;86.68;;;17.35;;
28613;SDS011;15806;53.548;9.964;2023-02-15T08:22:46;86.17;;;17.43;;
28613;SDS011;15806;53.548;9.964;2023-02-15T08:24:27;97.60;;;19.43;;
28613;SDS011;15806;53.548;9.964;2023-02-15T08:26:09;108.78;;;17.85;;
28613;SDS011;15806;53.548;9.964;2023-02-15T08:27:50;87.87;;;17.40;;
28613;SDS011;15806;53.548;9.964;2023-02-15T08:29:31;93.23;;;18.23;;
28613;SDS011;15806;53.548;9.964;2023-02-15T08:32:53;73.47;;;17.48;;
28613;SDS011;15806;53.548;9.964;2023-02-15T08:34:35;85.53;;;15.30;;
28613;SDS011;15806;53.548;9.964;2023-02-15T08:36:19;97.20;;;15.10;;
28613;SDS011;15806;53.548;9.964;2023-02-15T08:38:01;79.28;;;17.73;;
28613;SDS011;15806;53.548;9.964;2023-02-15T08:39:41;154.73;;;19.00;;
28613;SDS011;15806;53.548;9.964;2023-02-15T08:41:23;83.57;;;15.47;;
28613;SDS011;15806;53.548;9.964;2023-02-15T08:43:05;90.60;;;17.15;;
28613;SDS011;15806;53.548;9.964;2023-02-15T08:44:45;77.70;;;16.80;;
28613;SDS011;15806;53.548;9.964;2023-02-15T08:46:27;106.00;;;17.43;;
28613;SDS011;15806;53.548;9.964;2023-02-15T08:48:09;92.78;;;17.80;;
28613;SDS011;15806;53.548;9.964;2023-02-15T08:49:50;74.80;;;17.40;;
28613;SDS011;15806;53.548;9.964;2023-02-15T08:51:31;78.07;;;14.47;;
28613;SDS011;15806;53.548;9.964;2023-02-15T08:53:13;73.78;;;16.73;;
28613;SDS011;15806;53.548;9.964;2023-02-15T08:54:54;76.90;;;16.33;;
28613;SDS011;15806;53.548;9.964;2023-02-15T08:56:36;66.37;;;15.20;;
28613;SDS011;15806;53.548;9.964;2023-02-15T08:58:18;67.28;;;15.45;;
28613;SDS011;15806;53.548;9.964;2023-02-15T08:59:59;55.03;;;13.87;;
28613;SDS011;15806;53.548;9.964;2023-02-15T09:01:39;92.07;;;15.63;;
28613;SDS011;15806;53.548;9.964;2023-02-15T09:03:20;58.40;;;14.93;;
28613;SDS011;15806;53.548;9.964;2023-02-15T09:05:00;84.43;;;16.27;;
28613;SDS011;15806;53.548;9.964;2023-02-15T09:06:41;58.13;;;13.87;;
28613;SDS011;15806;53.548;9.964;2023-02-15T09:08:23;79.03;;;17.08;;
28613;SDS011;15806;53.548;9.964;2023-02-15T09:10:04;79.10;;;15.00;;
28613;SDS011;15806;53.548;9.964;2023-02-15T09:11:46;95.97;;;17.17;;
28613;SDS011;15806;53.548;9.964;2023-02-15T09:13:28;71.15;;;16.02;;
28613;SDS011;15806;53.548;9.964;2023-02-15T09:15:08;64.80;;;15.87;;
28613;SDS011;15806;53.548;9.964;2023-02-15T09:16:49;161.73;;;17.93;;
28613;SDS011;15806;53.548;9.964;2023-02-15T09:18:30;244.87;;;19.80;;
28613;SDS011;15806;53.548;9.964;2023-02-15T09:20:12;91.57;;;14.88;;
28613;SDS011;15806;53.548;9.964;2023-02-15T09:21:53;76.10;;;16.53;;
28613;SDS011;15806;53.548;9.964;2023-02-15T09:23:34;68.27;;;18.43;;
28613;SDS011;15806;53.548;9.964;2023-02-15T09:25:15;86.25;;;15.93;;
28613;SDS011;15806;53.548;9.964;2023-02-15T09:26:55;80.17;;;16.53;;
28613;SDS011;15806;53.548;9.964;2023-02-15T09:28:36;73.13;;;16.87;;
28613;SDS011;15806;53.548;9.964;2023-02-15T09:30:17;65.70;;;15.67;;
28613;SDS011;15806;53.548;9.964;2023-02-15T09:31:57;91.67;;;18.20;;
28613;SDS011;15806;53.548;9.964;2023-02-15T09:33:38;73.67;;;19.07;;
28613;SDS011;15806;53.548;9.964;2023-02-15T09:35:20;72.57;;;17.17;;
28613;SDS011;15806;53.548;9.964;2023-02-15T09:37:01;59.10;;;17.07;;
28613;SDS011;15806;53.548;9.964;2023-02-15T09:38:42;64.67;;;16.03;;
28613;SDS011;15806;53.548;9.964;2023-02-15T09:40:22;62.15;;;17.35;;
28613;SDS011;15806;53.548;9.964;2023-02-15T09:42:28;73.63;;;17.20;;
28613;SDS011;15806;53.548;9.964;2023-02-15T09:46:18;82.40;;;18.15;;
28613;SDS011;15806;53.548;9.964;2023-02-15T09:54:13;72.38;;;16.77;;
28613;SDS011;15806;53.548;9.964;2023-02-15T10:05:55;56.47;;;16.73;;
28613;SDS011;15806;53.548;9.964;2023-02-15T10:12:18;62.55;;;16.33;;
28613;SDS011;15806;53.548;9.964;2023-02-15T10:16:01;63.72;;;17.17;;
28613;SDS011;15806;53.548;9.964;2023-02-15T10:21:55;56.13;;;15.50;;
28613;SDS011;15806;53.548;9.964;2023-02-15T10:24:01;59.78;;;17.00;;
28613;SDS011;15806;53.548;9.964;2023-02-15T10:27:51;58.70;;;16.02;;
28613;SDS011;15806;53.548;9.964;2023-02-15T10:29:35;66.30;;;16.53;;
28613;SDS011;15806;53.548;9.964;2023-02-15T10:31:27;61.58;;;16.27;;
28613;SDS011;15806;53.548;9.964;2023-02-15T10:47:56;65.32;;;19.65;;
28613;SDS011;15806;53.548;9.964;2023-02-15T10:50:13;70.75;;;18.85;;
28613;SDS011;15806;53.548;9.964;2023-02-15T10:55:45;75.05;;;20.30;;
28613;SDS011;15806;53.548;9.964;2023-02-15T11:01:58;78.55;;;20.48;;
28613;SDS011;15806;53.548;9.964;2023-02-15T11:07:45;67.40;;;18.90;;
28613;SDS011;15806;53.548;9.964;2023-02-15T11:09:38;70.53;;;20.48;;
28613;SDS011;15806;53.548;9.964;2023-02-15T11:11:23;65.38;;;19.45;;
28613;SDS011;15806;53.548;9.964;2023-02-15T11:13:20;64.88;;;19.70;;
28613;SDS011;15806;53.548;9.964;2023-02-15T11:15:25;69.30;;;20.38;;
28613;SDS011;15806;53.548;9.964;2023-02-15T11:17:20;67.28;;;19.63;;
28613;SDS011;15806;53.548;9.964;2023-02-15T11:21:03;61.50;;;18.92;;
28613;SDS011;15806;53.548;9.964;2023-02-15T11:22:50;64.22;;;19.52;;
28613;SDS011;15806;53.548;9.964;2023-02-15T11:24:31;67.80;;;21.27;;
28613;SDS011;15806;53.548;9.964;2023-02-15T11:26:26;61.45;;;20.50;;
28613;SDS011;15806;53.548;9.964;2023-02-15T11:28:19;70.75;;;22.30;;
28613;SDS011;15806;53.548;9.964;2023-02-15T11:30:12;64.88;;;19.90;;
28613;SDS011;15806;53.548;9.964;2023-02-15T11:31:56;63.45;;;18.83;;